Hauptseite
METAR-TAF:

METAR-TAF

Flughäfen :

Athen, Griechenland

Eleftherios-Venizelos-Flughafen Athen

Breite: 37-56N, Länge: 023-56E, Höhe: 94 m

Beobachtung

Neuester Wetterbericht von vor 17 Minuten, um 14:20 UTC
Wind 3 kt aus Südost
Temperatur 16°C
Luftfeuchtigkeit 72%
Luftdruck 1020 hPa
Sichtweite 10 km oder mehr
Leicht bewölkt in der Höhe von 2500 ft

METAR: LGAV 241420Z 14003KT 9999 FEW025 16/11 Q1020 NOSIG

Zeit: 16:37 (14:37 UTC)

Prognose

Neuester Wetterbericht von vor 3 Stunden und 37 Minuten, um 11:00 UTC
Gültige Prognose vom 24 um 12 UTC bis 25 um 12 UTC
Wind 5 kt aus unterschiedlichen Richtungen
Sichtweite 10 km oder mehr
Aufgelockert bewölkt in der Höhe von 2500 ft
Wahrscheinlichkeit 40%
vom 25 um 00 UTC bis 25 um 06 UTC
Sichtweite: 4000 m
Aufgelockert bewölkt in der Höhe von 800 ft
feuchter Dunst

TAF: LGAV 241100Z 2412/2512 VRB05KT 9999 SCT025 PROB40 2500/2506 4000 BR SCT008

Wetterbeobachtungen und Prognosen von mehr als 4000 Flughäfen (METAR und TAF Bericht).

Die verfügbaren Stationen werden durch gelbe und rote Markierungen auf der Karte dargestellt.

Führen Sie die Maus auf sie, um den Namen der Station zu sehen.

Darauf klicken, um die Beobachtung von Wetterbeobachtungen und Prognosen zu sehen.

Um die Karte zu ändern : klicken Sie auf den grünen Tasten mit einem schwarzen Kreuz Zum Vergrößern, auf den grünen Button mit einem Gedankenstrich zu verkleinern, oder auf die grünen Pfeile für benachbarte Karten.


METAR-TAF: